Milladore, WI

2:25 AM CST on February 09, 2016 (GMT -0600)
RAWS | | Change Station
CLOSE
Current Station
Personal Weather Station
Location: Blenker, WI
Elevation: 1149 ft
Nearby Weather Stations

Elev 1149 ft 44.70 °N, 89.87 °W | Updated 1 hour ago

Partly Cloudy
Partly Cloudy
9.0 °F
Feels Like -5 °F
N
10.0
Wind Variable Wind from NW
Gusts 16.0 mph

Today
High -- | Low -- °F
--% Chance of Precip.
Yesterday
High -- | Low -- °F
Precip. -- in
Pressure 29.87 in
Visibility 10.0 miles
Clouds Few 6500 ft
Windchill -5 °F
Dew Point 2.0 °F
Humidity 74%
Rainfall in
Snow Depth Not available.
7:09 AM 5:18 PM
New Moon, 1% visible
METAR KMFI 090754Z AUTO 32015KT 10SM FEW065 M14/M18 A2979 RMK AO2 SLP115 T11391178
Pressure 29.87 in
Visibility 10.0 miles
Clouds Few 6500 ft
Windchill -5 °F
Dew Point 2.0 °F
Humidity 74%
Rainfall in
Snow Depth Not available.
7:09 AM 5:18 PM
New Moon, 1% visible
METAR KMFI 090754Z AUTO 32015KT 10SM FEW065 M14/M18 A2979 RMK AO2 SLP115 T11391178

10-Day Weather Forecast

Almanac

Astronomy

Feb. 09, 2016 Rise Set
Actual Time
Civil Twilight
Nautical Twilight
Astronomical Twilight
Moon
Length of Visible Light
Length of Day
Tomorrow will be .
, % of the Moon is Illuminated

Today's Extremes

State Highs State Lows

Community

WunderPhotos

Upload Photos

1,891,571 photos uploaded!

WunderBlog® & News

Nearby

Air Quality

  Air Quality AQ Index Pollutant
Not available.

Snow Depth

Station Depth Elevation

Earthquake Activity

City Distance Mag. Time & Date
Minimum magnitude displayed is 2.5.

Coastal Water Temperatures

Place Temperature

Stations

Nearby Weather Stations

Station Location Temp. Windchill Dew Point Humidity Wind Precip. Elev Updated Type
                   

Watches & Warnings

There are currently no watches in effect.